aviador You're here:

SEGU Decoded Metar

GUAYAQUIL in ECUADOR
Report Time2018-07-19 19:00:00
UTC Time2018-07-19 19:23:36
Flight Rules vfr VFR
Wind150° at 10 kt
W.Decomp.*RWY 21: 5.2 kt HW 8.6 kt LCW
W.Rank150° ranks 5
Current wind is above 150° avg. (5.4)
Visibility9999 m
Phenomena:N/A
Clouds:Few 030 Hf
Expected CloudBase > 3,200 ft AGL from Temp-Dew spread
CeilingNone
Temp28°C (ISA +13)
Dew Point20°C (62% RH)
Heat Index29.7°C
QNH1009 hPa
Density Alt1,975 ft
Elevation30 ft
Report Wrong Elevation
Raw Report
SEGU 191900Z 15010KT 9999 FEW030 28/20 Q1009 NOSIG RMK A2981=

Extra information for SEGU:More info

Metar Taf Metar & Taf Last 4 Metars F.Rules Stats Wind Profile Meteogram Temp Stats Airport Information Weather charts Add Link Nearby VenuesMetar ALERT Operation Metar Decoded Social comments